Time;durP1;ratioP1;P1;durP2;ratioP2;P2;SDS_P1;SDS_P2;PMS_P1;PMS_P2;Temp;Humidity;BMP_temperature;BMP_pressure;BME280_temperature;BME280_humidity;BME280_pressure;Samples;Min_cycle;Max_cycle;Signal;HPM_P1;HPM_P2
2021/03/08 00:00:52;;;;;;;4.50;4.20;;;;;14.90;101146.00;;;;2084418;28;20210;-70
2021/03/08 00:01:52;;;;;;;4.27;3.63;;;;;14.90;101142.00;;;;2085785;28;20581;-70
2021/03/08 00:02:53;;;;;;;3.67;3.37;;;;;14.90;101147.00;;;;2079492;28;20208;-70
2021/03/08 00:03:53;;;;;;;4.33;3.93;;;;;14.90;101147.00;;;;2071694;28;20210;-70
2021/03/08 00:04:54;;;;;;;3.97;3.67;;;;;14.90;101147.00;;;;2076859;28;20549;-70
2021/03/08 00:05:54;;;;;;;4.40;4.00;;;;;14.90;101146.00;;;;2085379;28;20684;-70
2021/03/08 00:06:55;;;;;;;4.70;4.20;;;;;14.90;101149.00;;;;2085217;28;20227;-70
2021/03/08 00:07:55;;;;;;;4.17;3.77;;;;;14.90;101155.00;;;;2084409;28;20217;-70
2021/03/08 00:08:55;;;;;;;4.10;3.70;;;;;14.90;101147.00;;;;2076542;28;20206;-70
2021/03/08 00:09:56;;;;;;;4.27;3.87;;;;;14.90;101145.00;;;;2074144;28;20261;-70
2021/03/08 00:10:56;;;;;;;4.50;4.10;;;;;14.90;101147.00;;;;2084777;28;20206;-69
2021/03/08 00:11:56;;;;;;;3.90;3.60;;;;;14.90;101141.00;;;;2084763;28;20208;-69
2021/03/08 00:12:57;;;;;;;4.83;4.43;;;;;14.90;101140.00;;;;2070846;28;20211;-70
2021/03/08 00:13:57;;;;;;;4.10;3.80;;;;;14.90;101142.00;;;;2070322;28;20578;-71
2021/03/08 00:14:58;;;;;;;4.43;4.03;;;;;14.90;101140.00;;;;2085262;28;20557;-70
2021/03/08 00:15:58;;;;;;;5.17;4.77;;;;;14.90;101137.00;;;;2078593;28;20291;-69
2021/03/08 00:16:59;;;;;;;5.10;4.27;;;;;14.90;101139.00;;;;2071514;28;20207;-70
2021/03/08 00:17:59;;;;;;;4.10;3.77;;;;;14.90;101141.00;;;;2079458;28;20214;-70
2021/03/08 00:18:59;;;;;;;4.47;4.03;;;;;14.90;101138.00;;;;2087990;28;20292;-70
2021/03/08 00:20:00;;;;;;;3.90;3.60;;;;;14.90;101141.00;;;;2085697;28;20194;-70
2021/03/08 00:21:00;;;;;;;4.70;4.33;;;;;14.90;101137.00;;;;2085504;28;20213;-70
2021/03/08 00:22:00;;;;;;;4.70;4.30;;;;;14.90;101144.00;;;;2085439;28;20241;-70
2021/03/08 00:23:01;;;;;;;4.27;3.97;;;;;14.90;101137.00;;;;2085527;28;20298;-69
2021/03/08 00:24:01;;;;;;;4.60;4.20;;;;;14.90;101137.00;;;;2085787;28;20316;-70
2021/03/08 00:25:07;;;;;;;4.90;4.50;;;;;14.90;101145.00;;;;2079041;28;20779;-70
2021/03/08 00:26:07;;;;;;;4.55;4.15;;;;;14.90;101147.00;;;;2069318;28;20243;-70
2021/03/08 00:27:07;;;;;;;4.10;3.80;;;;;14.90;101141.00;;;;2068882;28;20207;-71
2021/03/08 00:28:08;;;;;;;4.17;3.80;;;;;14.90;101145.00;;;;2079251;28;20214;-70
2021/03/08 00:29:08;;;;;;;5.00;4.60;;;;;14.90;101142.00;;;;2085227;28;20286;-70
2021/03/08 00:30:09;;;;;;;4.70;4.30;;;;;14.90;101140.00;;;;2090710;28;20244;-70
2021/03/08 00:31:10;;;;;;;4.82;4.43;;;;;14.90;101141.00;;;;2090875;28;20205;-70
2021/03/08 00:32:10;;;;;;;4.77;4.37;;;;;14.90;101150.00;;;;2085480;28;20292;-70
2021/03/08 00:33:10;;;;;;;4.70;4.30;;;;;14.90;101149.00;;;;2085677;28;20209;-70
2021/03/08 00:34:11;;;;;;;4.63;4.23;;;;;14.90;101148.00;;;;2085720;28;20653;-70
2021/03/08 00:35:12;;;;;;;4.50;4.17;;;;;14.90;101143.00;;;;2085212;28;20239;-70
2021/03/08 00:36:12;;;;;;;4.60;4.20;;;;;14.90;101145.00;;;;2085429;28;20232;-70
2021/03/08 00:37:12;;;;;;;4.30;4.00;;;;;14.90;101153.00;;;;2085500;28;20535;-70
2021/03/08 00:38:13;;;;;;;4.43;4.03;;;;;14.90;101148.00;;;;2085736;28;20205;-70
2021/03/08 00:39:13;;;;;;;4.53;4.13;;;;;14.90;101146.00;;;;2085433;28;20312;-70
2021/03/08 00:40:18;;;;;;;4.90;4.50;;;;;14.90;101150.00;;;;2085619;28;20233;-70
2021/03/08 00:41:18;;;;;;;4.40;4.00;;;;;14.90;101153.00;;;;2076387;28;20323;-70
2021/03/08 00:42:18;;;;;;;4.27;3.87;;;;;14.90;101148.00;;;;2076823;28;21078;-70
2021/03/08 00:43:19;;;;;;;4.67;4.27;;;;;14.90;101141.00;;;;2085442;28;20778;-70
2021/03/08 00:44:19;;;;;;;5.00;4.60;;;;;14.90;101141.00;;;;2085518;28;20565;-70
2021/03/08 00:45:21;;;;;;;4.67;4.27;;;;;14.90;101085.00;;;;2090202;28;20217;-70
2021/03/08 00:46:21;;;;;;;4.63;4.22;;;;;14.90;101136.00;;;;2065684;28;20274;-70
2021/03/08 00:47:22;;;;;;;5.57;5.07;;;;;14.90;101145.00;;;;2062596;28;20297;-71
2021/03/08 00:48:22;;;;;;;4.77;4.37;;;;;14.90;101138.00;;;;2078631;28;20222;-70
2021/03/08 00:49:22;;;;;;;5.60;5.10;;;;;14.90;101133.00;;;;2079036;28;20214;-70
2021/03/08 00:50:27;;;;;;;4.87;4.47;;;;;14.90;101136.00;;;;2085531;28;20216;-70
2021/03/08 00:51:27;;;;;;;4.75;4.35;;;;;14.90;101133.00;;;;2090125;28;20248;-70
2021/03/08 00:52:28;;;;;;;4.40;4.10;;;;;14.90;101130.00;;;;2086966;28;20280;-69
2021/03/08 00:53:28;;;;;;;5.10;4.20;;;;;14.90;101134.00;;;;2084775;28;20692;-70
2021/03/08 00:54:28;;;;;;;5.17;4.70;;;;;14.90;101133.00;;;;2085607;28;20216;-70
2021/03/08 00:55:29;;;;;;;5.40;4.90;;;;;14.90;101141.00;;;;2076064;28;20218;-70
2021/03/08 00:56:29;;;;;;;4.90;4.50;;;;;14.90;101139.00;;;;2076970;28;20298;-70
2021/03/08 00:57:30;;;;;;;5.50;5.00;;;;;14.90;101137.00;;;;2085155;28;20213;-70
2021/03/08 00:58:30;;;;;;;5.07;4.67;;;;;14.90;101128.00;;;;2074466;28;20245;-70
2021/03/08 00:59:30;;;;;;;4.47;4.17;;;;;14.90;101136.00;;;;2078996;28;20233;-70
2021/03/08 01:00:31;;;;;;;4.53;4.23;;;;;14.90;101130.00;;;;2076515;28;20210;-70
2021/03/08 01:01:31;;;;;;;4.60;4.30;;;;;14.90;101127.00;;;;2077067;28;20225;-70
2021/03/08 01:02:31;;;;;;;4.87;4.47;;;;;14.90;101131.00;;;;2078455;28;20715;-70
2021/03/08 01:03:32;;;;;;;5.40;4.90;;;;;14.90;101127.00;;;;2075886;28;20708;-70
2021/03/08 01:04:32;;;;;;;4.90;4.50;;;;;14.90;101129.00;;;;2085124;28;20624;-70
2021/03/08 01:05:32;;;;;;;4.63;4.23;;;;;14.90;101122.00;;;;2083713;28;20912;-70
2021/03/08 01:06:33;;;;;;;4.53;4.13;;;;;14.90;101121.00;;;;2084002;28;20237;-70
2021/03/08 01:07:34;;;;;;;4.80;4.40;;;;;14.90;101125.00;;;;2084202;28;20299;-70
2021/03/08 01:08:34;;;;;;;5.03;4.50;;;;;14.90;101120.00;;;;2084671;28;20760;-70
2021/03/08 01:09:34;;;;;;;5.10;4.60;;;;;14.90;101121.00;;;;2084685;28;20213;-70
2021/03/08 01:10:34;;;;;;;4.73;4.33;;;;;14.90;101121.00;;;;2084862;28;20275;-70
2021/03/08 01:11:35;;;;;;;4.73;4.33;;;;;14.90;101126.00;;;;2084918;28;20209;-70
2021/03/08 01:12:35;;;;;;;4.77;4.37;;;;;14.90;101122.00;;;;2084836;28;20214;-70
2021/03/08 01:13:35;;;;;;;4.30;3.90;;;;;14.90;101127.00;;;;2076158;28;20791;-70
2021/03/08 01:14:36;;;;;;;5.20;4.70;;;;;14.90;101127.00;;;;2076101;28;20688;-70
2021/03/08 01:15:36;;;;;;;5.00;4.60;;;;;14.90;101116.00;;;;2085322;28;20232;-70
2021/03/08 01:16:37;;;;;;;4.50;4.10;;;;;14.90;101119.00;;;;2087746;28;20209;-70
2021/03/08 01:17:37;;;;;;;5.60;5.10;;;;;14.90;101119.00;;;;2087755;28;20209;-70
2021/03/08 01:18:37;;;;;;;5.00;4.50;;;;;14.90;101114.00;;;;2092535;28;20232;-70
2021/03/08 01:19:38;;;;;;;4.60;4.20;;;;;14.90;101114.00;;;;2083052;28;20241;-69
2021/03/08 01:20:38;;;;;;;5.23;4.83;;;;;14.90;101111.00;;;;2077867;28;20309;-71
2021/03/08 01:21:38;;;;;;;4.77;4.37;;;;;14.90;101113.00;;;;2084956;28;20221;-70
2021/03/08 01:22:39;;;;;;;5.20;4.70;;;;;14.90;101119.00;;;;2085108;28;20201;-70
2021/03/08 01:23:39;;;;;;;4.70;4.30;;;;;14.90;101113.00;;;;2085043;28;20229;-70
2021/03/08 01:24:39;;;;;;;4.90;4.50;;;;;14.90;101115.00;;;;2085233;28;20216;-70
2021/03/08 01:25:40;;;;;;;4.90;4.50;;;;;14.90;101105.00;;;;2084613;28;20227;-69
2021/03/08 01:26:40;;;;;;;4.83;4.43;;;;;14.90;101112.00;;;;2076188;28;20298;-70
2021/03/08 01:27:41;;;;;;;5.17;4.73;;;;;14.90;101111.00;;;;2068285;28;20249;-70
2021/03/08 01:28:41;;;;;;;5.13;4.73;;;;;14.90;101110.00;;;;2076142;28;20213;-70
2021/03/08 01:29:41;;;;;;;5.60;5.10;;;;;14.90;101109.00;;;;2084935;28;20224;-70
2021/03/08 01:30:43;;;;;;;5.47;4.97;;;;;14.90;101109.00;;;;2085287;28;20658;-71
2021/03/08 01:31:43;;;;;;;5.15;4.68;;;;;14.90;101109.00;;;;2076257;28;20217;-70
2021/03/08 01:32:44;;;;;;;5.77;5.27;;;;;14.90;101114.00;;;;2076359;28;20277;-70
2021/03/08 01:33:44;;;;;;;5.20;4.80;;;;;14.90;101107.00;;;;2084814;28;20248;-70
2021/03/08 01:34:44;;;;;;;5.47;5.00;;;;;14.90;101111.00;;;;2085178;28;20710;-70
2021/03/08 01:35:45;;;;;;;5.07;4.57;;;;;14.90;101111.00;;;;2084314;28;20259;-70
2021/03/08 01:36:45;;;;;;;5.20;4.70;;;;;14.90;101110.00;;;;2084821;28;20706;-70
2021/03/08 01:37:45;;;;;;;5.33;4.83;;;;;14.90;101103.00;;;;2085074;28;20237;-70
2021/03/08 01:38:46;;;;;;;4.77;4.43;;;;;14.90;101105.00;;;;2084800;28;20205;-70
2021/03/08 01:39:46;;;;;;;5.00;4.60;;;;;14.90;101101.00;;;;2076245;28;20276;-70
2021/03/08 01:40:46;;;;;;;6.20;4.87;;;;;14.90;101107.00;;;;2076412;28;20202;-70
2021/03/08 01:41:47;;;;;;;5.07;4.67;;;;;14.90;101103.00;;;;2084495;28;20202;-70
2021/03/08 01:42:47;;;;;;;5.40;5.00;;;;;14.90;101102.00;;;;2085207;28;20767;-70
2021/03/08 01:43:48;;;;;;;5.70;5.20;;;;;14.90;101112.00;;;;2075935;28;20307;-70
2021/03/08 01:44:48;;;;;;;4.97;4.57;;;;;14.90;101103.00;;;;2076166;28;20218;-70
2021/03/08 01:45:49;;;;;;;5.40;4.90;;;;;14.90;101106.00;;;;2084358;28;20926;-70
2021/03/08 01:46:50;;;;;;;4.83;4.43;;;;;14.90;101106.00;;;;2078593;28;20210;-70
2021/03/08 01:47:51;;;;;;;5.30;4.80;;;;;14.90;101104.00;;;;2072981;28;20211;-70
2021/03/08 01:48:52;;;;;;;5.50;5.00;;;;;14.90;101106.00;;;;2082457;28;20303;-69
2021/03/08 01:49:52;;;;;;;5.88;5.38;;;;;14.90;101107.00;;;;2084651;28;20224;-70
2021/03/08 01:50:53;;;;;;;5.73;5.33;;;;;14.90;101107.00;;;;2085015;28;20634;-70
2021/03/08 01:51:53;;;;;;;5.50;5.03;;;;;14.90;101105.00;;;;2091751;28;20630;-71
2021/03/08 01:52:54;;;;;;;5.40;4.90;;;;;14.90;101112.00;;;;2075890;28;20210;-70
2021/03/08 01:53:54;;;;;;;5.10;4.70;;;;;14.90;101100.00;;;;2059858;28;20211;-70
2021/03/08 01:54:54;;;;;;;5.33;4.93;;;;;14.90;101096.00;;;;2068178;28;20218;-71
2021/03/08 01:55:55;;;;;;;5.30;4.90;;;;;14.90;101101.00;;;;2075363;28;20305;-69
2021/03/08 01:56:56;;;;;;;5.72;5.22;;;;;14.90;101096.00;;;;2084976;28;20213;-70
2021/03/08 01:57:56;;;;;;;5.07;4.67;;;;;14.90;101094.00;;;;2092511;28;20220;-70
2021/03/08 01:58:56;;;;;;;5.83;5.40;;;;;14.90;101094.00;;;;2076028;28;20214;-71
2021/03/08 01:59:57;;;;;;;5.63;5.20;;;;;14.80;101099.00;;;;2062439;28;20218;-70
2021/03/08 02:00:57;;;;;;;4.97;4.27;;;;;14.90;101104.00;;;;2067321;28;20226;-70
2021/03/08 02:01:58;;;;;;;5.57;5.10;;;;;14.90;101088.00;;;;2074512;28;20705;-70
2021/03/08 02:02:58;;;;;;;5.57;5.17;;;;;14.90;101093.00;;;;2083795;28;20771;-70
2021/03/08 02:03:59;;;;;;;4.97;4.57;;;;;14.60;101087.00;;;;2083577;28;20217;-70
2021/03/08 02:04:59;;;;;;;5.40;5.00;;;;;14.90;101088.00;;;;2083914;28;20300;-70
2021/03/08 02:05:59;;;;;;;5.50;5.00;;;;;14.90;101092.00;;;;2084392;28;20259;-70
2021/03/08 02:07:00;;;;;;;5.17;4.67;;;;;14.90;101080.00;;;;2084249;28;20209;-70
2021/03/08 02:08:03;;;;;;;5.27;4.77;;;;;14.80;101082.00;;;;2088040;28;20326;-70
2021/03/08 02:09:04;;;;;;;5.70;5.20;;;;;14.90;101080.00;;;;2076760;28;20209;-70
2021/03/08 02:10:17;;;;;;;5.47;4.97;;;;;14.90;101069.00;;;;2075089;28;20368;-68
2021/03/08 02:11:17;;;;;;;5.20;4.80;;;;;14.90;101085.00;;;;2067362;28;20458;-70
2021/03/08 02:12:53;;;;;;;5.80;5.30;;;;;14.90;101075.00;;;;2067831;28;20210;-70
2021/03/08 02:14:23;;;;;;;5.72;5.22;;;;;14.90;101082.00;;;;2050839;28;20375;-69
2021/03/08 02:15:42;;;;;;;6.03;5.43;;;;;14.90;101082.00;;;;2083967;28;20259;-71
2021/03/08 02:17:16;;;;;;;4.97;4.57;;;;;14.90;101076.00;;;;2082401;28;20218;-70
2021/03/08 02:18:54;;;;;;;5.30;4.80;;;;;14.80;101070.00;;;;2073687;28;20210;-70
2021/03/08 02:20:24;;;;;;;5.90;5.40;;;;;14.90;101072.00;;;;2073707;28;20764;-70
2021/03/08 02:21:31;;;;;;;5.50;5.00;;;;;14.80;101080.00;;;;2073665;28;20228;-70
2021/03/08 02:22:56;;;;;;;5.70;5.10;;;;;14.80;101060.00;;;;2075921;28;20214;-70
2021/03/08 02:24:27;;;;;;;5.55;5.07;;;;;14.80;101070.00;;;;2078782;28;20714;-70
2021/03/08 02:25:36;;;;;;;5.93;4.90;;;;;14.80;101073.00;;;;2085574;28;20686;-70
2021/03/08 02:26:51;;;;;;;5.35;4.85;;;;;14.80;101065.00;;;;2075803;28;20211;-69
2021/03/08 02:28:11;;;;;;;5.82;5.20;;;;;14.80;101071.00;;;;2078252;28;20297;-70
2021/03/08 02:29:39;;;;;;;5.93;5.43;;;;;14.80;101074.00;;;;2084339;28;20233;-70
2021/03/08 02:30:49;;;;;;;5.30;4.80;;;;;14.80;101062.00;;;;2067704;28;20207;-70
2021/03/08 02:31:50;;;;;;;6.05;5.40;;;;;14.80;101068.00;;;;2071143;28;20229;-70
2021/03/08 02:32:50;;;;;;;5.57;5.10;;;;;14.80;101069.00;;;;2067941;28;20264;-70
2021/03/08 02:33:55;;;;;;;5.70;5.20;;;;;14.80;101067.00;;;;2067199;28;20219;-70
2021/03/08 02:35:12;;;;;;;5.80;5.30;;;;;14.80;101065.00;;;;2059847;28;20207;-70
2021/03/08 02:36:12;;;;;;;6.25;5.65;;;;;14.90;101054.00;;;;2058094;28;20215;-70
2021/03/08 02:37:18;;;;;;;4.93;4.53;;;;;14.80;101058.00;;;;2060268;28;20286;-70
2021/03/08 02:38:19;;;;;;;6.03;5.40;;;;;14.90;101061.00;;;;2068416;28;20215;-70
2021/03/08 02:39:25;;;;;;;5.80;5.20;;;;;14.80;101063.00;;;;2068038;28;20219;-70
2021/03/08 02:40:34;;;;;;;5.55;5.07;;;;;14.80;101051.00;;;;2075279;28;20313;-70
2021/03/08 02:41:34;;;;;;;5.70;5.20;;;;;14.80;101056.00;;;;2074104;28;20239;-70
2021/03/08 02:42:37;;;;;;;6.17;5.57;;;;;14.80;101058.00;;;;2067760;28;20694;-70
2021/03/08 02:43:44;;;;;;;6.05;5.55;;;;;14.90;101057.00;;;;2067653;28;20286;-66
2021/03/08 02:44:45;;;;;;;6.00;5.50;;;;;14.90;101054.00;;;;2067859;28;20207;-70
2021/03/08 02:45:46;;;;;;;5.70;5.30;;;;;14.80;101057.00;;;;2067126;28;20211;-69
2021/03/08 02:46:47;;;;;;;5.70;5.20;;;;;14.80;101050.00;;;;2061848;28;20219;-69
2021/03/08 02:47:48;;;;;;;6.03;5.53;;;;;14.80;101062.00;;;;2068236;28;20203;-70
2021/03/08 02:48:48;;;;;;;6.03;5.53;;;;;14.80;101054.00;;;;2065648;28;20213;-69
2021/03/08 02:49:50;;;;;;;5.97;5.47;;;;;14.80;101057.00;;;;2067664;28;20274;-69
2021/03/08 02:50:52;;;;;;;6.35;5.85;;;;;14.80;101052.00;;;;2062189;28;20203;-70
2021/03/08 02:52:08;;;;;;;6.00;5.50;;;;;14.90;101052.00;;;;2052298;28;20399;-70
2021/03/08 02:53:11;;;;;;;5.57;5.07;;;;;14.80;101049.00;;;;2053234;28;20302;-69
2021/03/08 02:54:11;;;;;;;5.72;5.30;;;;;14.90;101055.00;;;;2071042;28;20211;-70
2021/03/08 02:55:11;;;;;;;6.00;5.50;;;;;14.80;101059.00;;;;2097084;28;20200;-70
2021/03/08 02:56:14;;;;;;;5.27;4.80;;;;;14.80;101045.00;;;;2083695;28;20213;-70
2021/03/08 02:57:16;;;;;;;5.93;5.43;;;;;14.90;101049.00;;;;2075729;28;20214;-70
2021/03/08 02:58:16;;;;;;;5.10;4.70;;;;;14.90;101052.00;;;;2075762;28;20212;-70
2021/03/08 02:59:17;;;;;;;5.20;4.80;;;;;14.90;101063.00;;;;2075389;28;20248;-70
2021/03/08 03:00:18;;;;;;;5.60;5.10;;;;;14.80;101052.00;;;;2067385;28;20219;-70
2021/03/08 03:01:21;;;;;;;6.10;5.60;;;;;14.80;101045.00;;;;2066631;28;20285;-70
2021/03/08 03:02:22;;;;;;;5.60;5.10;;;;;14.80;101058.00;;;;2067923;28;20464;-70
2021/03/08 03:03:22;;;;;;;5.43;4.97;;;;;14.80;101042.00;;;;2075690;28;20730;-70
2021/03/08 03:04:23;;;;;;;6.57;5.97;;;;;14.80;101053.00;;;;2075831;28;20528;-70
2021/03/08 03:05:23;;;;;;;5.70;5.20;;;;;14.80;101055.00;;;;2075174;28;20203;-70
2021/03/08 03:06:26;;;;;;;6.57;5.97;;;;;14.80;101049.00;;;;2075957;28;21310;-70
2021/03/08 03:07:27;;;;;;;6.32;5.78;;;;;14.80;101056.00;;;;2075405;28;20219;-70
2021/03/08 03:08:27;;;;;;;5.63;5.17;;;;;14.90;101054.00;;;;2075729;28;20226;-70
2021/03/08 03:09:28;;;;;;;5.90;5.40;;;;;14.80;101054.00;;;;2075650;28;20300;-70
2021/03/08 03:10:30;;;;;;;6.30;5.80;;;;;14.80;101055.00;;;;2075824;28;20654;-71
2021/03/08 03:11:31;;;;;;;6.00;5.50;;;;;14.80;101045.00;;;;2062507;28;20241;-70
2021/03/08 03:12:32;;;;;;;6.13;5.60;;;;;14.80;101055.00;;;;2054672;28;20711;-70
2021/03/08 03:13:33;;;;;;;5.82;5.32;;;;;14.80;101054.00;;;;2059405;28;20983;-70
2021/03/08 03:14:34;;;;;;;5.38;4.97;;;;;14.80;101057.00;;;;2062040;28;20693;-70
2021/03/08 03:15:37;;;;;;;6.47;5.97;;;;;14.80;101046.00;;;;2064707;28;20291;-70
2021/03/08 03:16:38;;;;;;;5.50;5.00;;;;;14.80;101055.00;;;;2075564;28;20210;-70
2021/03/08 03:17:38;;;;;;;5.72;5.32;;;;;14.80;101050.00;;;;2074013;28;20712;-70
2021/03/08 03:18:39;;;;;;;6.87;6.27;;;;;14.80;101056.00;;;;2073928;28;20301;-71
2021/03/08 03:19:44;;;;;;;5.90;5.40;;;;;14.90;101049.00;;;;2074371;28;20226;-70
2021/03/08 03:20:45;;;;;;;6.85;6.25;;;;;14.80;101040.00;;;;2069204;28;20203;-68
2021/03/08 03:21:45;;;;;;;5.77;5.27;;;;;14.80;101053.00;;;;2061557;28;20294;-70
2021/03/08 03:22:46;;;;;;;6.17;5.57;;;;;14.80;101056.00;;;;2062117;28;20211;-71
2021/03/08 03:23:49;;;;;;;6.23;5.63;;;;;14.80;101055.00;;;;2059282;28;20303;-70
2021/03/08 03:24:50;;;;;;;5.65;5.25;;;;;14.80;101063.00;;;;2067946;28;20212;-70
2021/03/08 03:25:51;;;;;;;5.95;5.45;;;;;14.80;101062.00;;;;2074818;28;20214;-70
2021/03/08 03:26:51;;;;;;;6.53;5.93;;;;;14.80;101065.00;;;;2067669;28;20211;-71
2021/03/08 03:27:52;;;;;;;6.50;5.90;;;;;14.80;101067.00;;;;2065389;28;20208;-70
2021/03/08 03:28:52;;;;;;;6.70;6.10;;;;;14.90;101059.00;;;;2067625;28;20812;-70
2021/03/08 03:29:53;;;;;;;5.70;5.20;;;;;14.80;101070.00;;;;2075273;28;20202;-70
2021/03/08 03:30:54;;;;;;;7.85;6.18;;;;;14.80;101067.00;;;;2067376;28;20214;-70
2021/03/08 03:31:54;;;;;;;5.60;5.20;;;;;14.80;101060.00;;;;2059583;28;20211;-70
2021/03/08 03:32:54;;;;;;;6.10;5.60;;;;;14.80;101061.00;;;;2059258;28;20987;-70
2021/03/08 03:33:55;;;;;;;6.20;5.70;;;;;14.80;101063.00;;;;2060045;28;21063;-70
2021/03/08 03:34:56;;;;;;;5.93;5.43;;;;;14.80;101056.00;;;;2075296;28;20264;-70
2021/03/08 03:35:56;;;;;;;6.10;5.60;;;;;14.80;101055.00;;;;2066645;28;20538;-71
2021/03/08 03:36:56;;;;;;;5.97;5.37;;;;;14.80;101065.00;;;;2067165;28;20597;-70
2021/03/08 03:37:57;;;;;;;6.23;5.67;;;;;14.80;101069.00;;;;2066961;28;20846;-70
2021/03/08 03:38:57;;;;;;;6.27;5.67;;;;;14.80;101058.00;;;;2065486;28;20204;-70
2021/03/08 03:39:57;;;;;;;5.50;5.00;;;;;14.80;101064.00;;;;2075259;28;20645;-68
2021/03/08 03:40:58;;;;;;;5.90;5.40;;;;;14.80;101062.00;;;;2075140;28;20203;-70
2021/03/08 03:41:58;;;;;;;5.40;5.00;;;;;14.80;101067.00;;;;2075505;28;20292;-71
2021/03/08 03:42:59;;;;;;;5.90;5.40;;;;;14.80;101059.00;;;;2075554;28;20293;-70
2021/03/08 03:44:00;;;;;;;6.10;5.50;;;;;14.80;101056.00;;;;2067590;28;20217;-70
2021/03/08 03:45:04;;;;;;;6.95;6.35;;;;;14.80;101067.00;;;;2067561;28;20218;-70
2021/03/08 03:46:04;;;;;;;6.68;6.07;;;;;14.80;101059.00;;;;2078107;28;20712;-70
2021/03/08 03:47:05;;;;;;;6.20;5.60;;;;;14.80;101065.00;;;;2073930;28;20281;-70
2021/03/08 03:48:05;;;;;;;6.90;6.30;;;;;14.80;101059.00;;;;2079859;28;20213;-70
2021/03/08 03:49:06;;;;;;;6.47;5.87;;;;;14.80;101064.00;;;;2080034;28;20233;-70
2021/03/08 03:50:08;;;;;;;6.80;6.20;;;;;14.80;101062.00;;;;2093029;28;20591;-70
2021/03/08 03:51:08;;;;;;;6.00;5.50;;;;;14.80;101063.00;;;;2084905;28;20297;-70
2021/03/08 03:52:09;;;;;;;6.10;5.60;;;;;14.80;101056.00;;;;2074874;28;20225;-70
2021/03/08 03:53:09;;;;;;;6.53;6.03;;;;;14.80;101051.00;;;;2076965;28;20216;-70
2021/03/08 03:54:09;;;;;;;5.73;5.23;;;;;14.80;101062.00;;;;2077161;28;20217;-70
2021/03/08 03:55:12;;;;;;;6.00;5.50;;;;;14.80;101065.00;;;;2092361;28;20223;-70
2021/03/08 03:56:12;;;;;;;5.88;5.38;;;;;14.80;101065.00;;;;2084808;28;20692;-70
2021/03/08 03:57:13;;;;;;;6.03;5.43;;;;;14.80;101064.00;;;;2077101;28;20214;-69
2021/03/08 03:58:17;;;;;;;6.10;5.50;;;;;14.80;101074.00;;;;2069144;28;20206;-70
2021/03/08 03:59:20;;;;;;;6.35;5.85;;;;;14.80;101065.00;;;;2069031;28;20294;-70
2021/03/08 04:00:24;;;;;;;6.05;5.50;;;;;14.80;101068.00;;;;2071717;28;20277;-70
2021/03/08 04:01:33;;;;;;;6.47;5.88;;;;;14.80;101067.00;;;;2085244;28;20270;-70
2021/03/08 04:02:47;;;;;;;6.22;5.68;;;;;14.80;101071.00;;;;2077071;28;20203;-70
2021/03/08 04:03:56;;;;;;;6.30;5.80;;;;;14.80;101072.00;;;;2062281;28;20224;-70
2021/03/08 04:05:00;;;;;;;6.18;5.57;;;;;14.80;101064.00;;;;2056083;28;20215;-70
2021/03/08 04:06:00;;;;;;;5.93;5.32;;;;;14.80;101074.00;;;;2052999;28;20271;-70
2021/03/08 04:07:03;;;;;;;6.67;6.17;;;;;14.80;101068.00;;;;2067731;28;20229;-70
2021/03/08 04:08:03;;;;;;;5.60;5.10;;;;;14.80;101069.00;;;;2077049;28;20202;-70
2021/03/08 04:09:04;;;;;;;6.00;5.50;;;;;14.80;101077.00;;;;2076861;28;20210;-70
2021/03/08 04:10:05;;;;;;;6.13;5.70;;;;;14.80;101059.00;;;;2077205;28;20256;-70
2021/03/08 04:11:05;;;;;;;5.50;5.10;;;;;14.80;101073.00;;;;2083837;28;20702;-70
2021/03/08 04:12:08;;;;;;;6.47;5.87;;;;;14.80;101077.00;;;;2076553;28;20449;-70
2021/03/08 04:13:11;;;;;;;6.35;5.75;;;;;14.80;101071.00;;;;2061233;28;20246;-70
2021/03/08 04:14:14;;;;;;;6.10;5.60;;;;;14.80;101066.00;;;;2066784;28;20671;-70
2021/03/08 04:15:15;;;;;;;5.60;5.15;;;;;14.80;101071.00;;;;2070362;28;20224;-70
2021/03/08 04:16:16;;;;;;;6.30;5.80;;;;;14.80;101084.00;;;;2092972;28;20224;-70
2021/03/08 04:17:17;;;;;;;6.50;5.90;;;;;14.80;101064.00;;;;2086534;28;20455;-70
2021/03/08 04:18:17;;;;;;;6.07;5.57;;;;;14.80;101076.00;;;;2078687;28;20673;-70
2021/03/08 04:19:20;;;;;;;5.30;4.90;;;;;14.80;101079.00;;;;2073125;28;21139;-70
2021/03/08 04:20:20;;;;;;;6.72;5.78;;;;;14.80;101076.00;;;;2073128;28;20215;-70
2021/03/08 04:21:21;;;;;;;6.03;5.53;;;;;14.80;101069.00;;;;2075874;28;20248;-70
2021/03/08 04:22:26;;;;;;;5.90;5.40;;;;;14.80;101076.00;;;;2071454;28;20221;-70
2021/03/08 04:23:26;;;;;;;6.50;5.70;;;;;14.80;101086.00;;;;2083878;28;20209;-70
2021/03/08 04:24:31;;;;;;;5.70;5.20;;;;;14.80;101073.00;;;;2079154;28;20245;-69
2021/03/08 04:25:32;;;;;;;6.75;6.10;;;;;14.80;101073.00;;;;2071331;28;20218;-70
2021/03/08 04:26:32;;;;;;;6.20;5.70;;;;;14.80;101078.00;;;;2081837;28;20236;-70
2021/03/08 04:27:32;;;;;;;6.40;5.80;;;;;14.80;101076.00;;;;2083364;28;20245;-70
2021/03/08 04:28:33;;;;;;;6.50;5.90;;;;;14.80;101068.00;;;;2076843;28;20215;-70
2021/03/08 04:29:40;;;;;;;5.93;5.43;;;;;14.80;101073.00;;;;2076999;28;20309;-70
2021/03/08 04:30:44;;;;;;;6.07;5.55;;;;;14.80;101081.00;;;;2069613;28;20225;-70
2021/03/08 04:31:44;;;;;;;6.25;5.75;;;;;14.80;101072.00;;;;2078501;28;21027;-70
2021/03/08 04:32:48;;;;;;;6.70;6.20;;;;;14.80;101076.00;;;;2085760;28;20214;-70
2021/03/08 04:33:48;;;;;;;8.90;6.72;;;;;14.80;101078.00;;;;2084729;28;20221;-70
2021/03/08 04:34:49;;;;;;;6.97;6.37;;;;;14.80;101080.00;;;;2084207;28;20682;-70
2021/03/08 04:35:49;;;;;;;5.83;5.30;;;;;14.80;101082.00;;;;2074141;28;20242;-69
2021/03/08 04:36:49;;;;;;;6.67;6.07;;;;;14.80;101073.00;;;;2060851;28;20649;-67
2021/03/08 04:37:50;;;;;;;6.67;6.07;;;;;14.80;101079.00;;;;2068184;28;20582;-69
2021/03/08 04:38:50;;;;;;;6.80;6.10;;;;;14.80;101058.00;;;;2076758;28;20665;-70
2021/03/08 04:39:51;;;;;;;6.43;5.87;;;;;14.80;101080.00;;;;2060395;28;21011;-70
2021/03/08 04:40:52;;;;;;;6.83;6.23;;;;;14.80;101075.00;;;;2068589;28;20638;-70
2021/03/08 04:41:52;;;;;;;6.30;5.70;;;;;14.80;101075.00;;;;2069013;28;20664;-70
2021/03/08 04:42:52;;;;;;;6.13;5.57;;;;;14.80;101078.00;;;;2076583;28;20215;-70
2021/03/08 04:43:53;;;;;;;6.47;5.87;;;;;14.80;101079.00;;;;2076779;28;20226;-70
2021/03/08 04:44:53;;;;;;;6.43;5.83;;;;;14.80;101084.00;;;;2068674;28;20211;-70
2021/03/08 04:45:54;;;;;;;5.90;5.40;;;;;14.80;101089.00;;;;2064046;28;20215;-70
2021/03/08 04:46:55;;;;;;;7.10;6.40;;;;;14.80;101091.00;;;;2084253;28;20229;-70
2021/03/08 04:47:55;;;;;;;6.43;5.83;;;;;14.80;101081.00;;;;2082204;28;20233;-70
2021/03/08 04:48:56;;;;;;;7.00;6.07;;;;;14.80;101083.00;;;;2075278;28;20203;-70
2021/03/08 04:49:56;;;;;;;6.07;5.53;;;;;14.80;101080.00;;;;2076552;28;20209;-70
2021/03/08 04:50:57;;;;;;;6.00;5.50;;;;;14.80;101077.00;;;;2071167;28;20249;-69
2021/03/08 04:51:57;;;;;;;6.00;5.50;;;;;14.80;101090.00;;;;2060915;28;20212;-70
2021/03/08 04:52:57;;;;;;;6.20;5.70;;;;;14.80;101069.00;;;;2083980;28;20209;-70
2021/03/08 04:53:59;;;;;;;7.30;6.60;;;;;14.80;101087.00;;;;2083807;28;20324;-70
2021/03/08 04:54:59;;;;;;;6.30;5.70;;;;;14.80;101073.00;;;;2068291;28;20203;-70
2021/03/08 04:56:00;;;;;;;6.00;5.50;;;;;14.80;101085.00;;;;2059985;28;20668;-70
2021/03/08 04:57:01;;;;;;;6.82;6.13;;;;;14.80;101083.00;;;;2055993;28;20201;-70
2021/03/08 04:58:01;;;;;;;6.20;5.60;;;;;14.80;101088.00;;;;2067731;28;20209;-70
2021/03/08 04:59:02;;;;;;;6.10;5.60;;;;;14.80;101079.00;;;;2084100;28;20726;-70
2021/03/08 05:00:07;;;;;;;6.80;6.20;;;;;14.80;101091.00;;;;2085231;28;20202;-70
2021/03/08 05:01:07;;;;;;;6.35;5.85;;;;;14.80;101078.00;;;;2085354;28;20212;-70
2021/03/08 05:02:09;;;;;;;6.80;6.20;;;;;14.80;101086.00;;;;2083944;28;20213;-70
2021/03/08 05:03:10;;;;;;;6.82;6.20;;;;;14.80;101076.00;;;;2067574;28;20218;-70
2021/03/08 05:04:11;;;;;;;6.25;5.75;;;;;14.80;101080.00;;;;2075907;28;20209;-70
2021/03/08 05:05:11;;;;;;;7.03;6.43;;;;;14.80;101069.00;;;;2066946;28;20698;-70
2021/03/08 05:06:12;;;;;;;6.73;6.13;;;;;14.80;101081.00;;;;2063067;28;22878;-70
2021/03/08 05:07:13;;;;;;;7.03;6.33;;;;;14.80;101082.00;;;;2078486;28;20218;-71
2021/03/08 05:08:14;;;;;;;6.38;5.85;;;;;14.80;101086.00;;;;2070978;28;20214;-70